createdAt,value
2022-08-19T00:00:26.590Z,23.0
2022-08-19T00:05:32.793Z,22.0
2022-08-19T00:10:39.002Z,20.0
2022-08-19T00:15:45.207Z,22.0
2022-08-19T00:20:51.422Z,24.5
2022-08-19T00:25:57.623Z,21.0
2022-08-19T00:31:03.832Z,20.0
2022-08-19T00:36:10.047Z,21.0
2022-08-19T00:41:16.248Z,21.0
2022-08-19T00:46:22.457Z,21.0
2022-08-19T00:51:28.669Z,21.5
2022-08-19T00:56:34.878Z,21.0
2022-08-19T01:01:41.130Z,22.0
2022-08-19T01:06:47.291Z,23.0
2022-08-19T01:11:53.500Z,24.0
2022-08-19T01:16:59.707Z,24.5
2022-08-19T01:22:15.452Z,26.0
2022-08-19T01:27:12.143Z,27.0
2022-08-19T01:32:33.103Z,28.0
2022-08-19T01:37:24.858Z,29.0
2022-08-19T01:42:30.814Z,29.0
2022-08-19T01:47:36.963Z,28.0
2022-08-19T01:52:43.165Z,29.0
2022-08-19T01:57:49.377Z,27.5
2022-08-19T02:02:55.587Z,27.0
2022-08-19T02:08:01.819Z,26.0
2022-08-19T02:13:08.007Z,29.0
2022-08-19T02:18:14.212Z,28.0
2022-08-19T02:23:20.422Z,29.0
2022-08-19T02:28:26.625Z,29.0
2022-08-19T02:33:32.833Z,30.0
2022-08-19T02:38:39.043Z,29.0
2022-08-19T02:44:18.354Z,29.0
2022-08-19T02:48:51.454Z,29.5
2022-08-19T02:53:57.668Z,28.0
2022-08-19T02:59:03.877Z,28.0
2022-08-19T03:04:10.085Z,31.0
2022-08-19T03:09:16.293Z,26.0
2022-08-19T03:14:22.497Z,24.0
2022-08-19T03:19:28.709Z,26.0
2022-08-19T03:24:34.918Z,31.0
2022-08-19T03:29:43.885Z,34.0
2022-08-19T03:34:47.332Z,34.0
2022-08-19T03:39:53.590Z,35.5
2022-08-19T03:44:59.753Z,35.5
2022-08-19T03:50:05.959Z,35.0
2022-08-19T03:55:12.163Z,33.0
2022-08-19T04:00:18.376Z,35.0
2022-08-19T04:05:24.702Z,32.0
2022-08-19T04:10:30.792Z,32.0
2022-08-19T04:15:36.997Z,31.0
2022-08-19T04:20:43.205Z,32.0
2022-08-19T04:25:49.409Z,31.0
2022-08-19T04:30:54.645Z,33.0
2022-08-19T04:36:00.843Z,35.0
2022-08-19T04:41:07.060Z,36.5
2022-08-19T04:46:23.477Z,37.0
2022-08-19T04:51:19.468Z,39.5
2022-08-19T04:56:25.674Z,41.0
2022-08-19T05:01:31.904Z,40.0
2022-08-19T05:06:38.092Z,39.0
2022-08-19T05:11:44.299Z,40.0
2022-08-19T05:16:58.878Z,39.0
2022-08-19T05:21:56.721Z,40.0
2022-08-19T05:27:02.929Z,40.0
2022-08-19T05:32:09.136Z,40.0
2022-08-19T05:37:15.346Z,41.0
2022-08-19T05:42:21.554Z,43.0
2022-08-19T05:47:27.759Z,44.0
2022-08-19T05:52:33.976Z,44.0
2022-08-19T05:57:40.183Z,45.0
2022-08-19T06:02:46.483Z,46.5
2022-08-19T06:07:52.787Z,51.5
2022-08-19T06:12:58.800Z,57.0
2022-08-19T06:18:05.047Z,60.0
2022-08-19T06:23:11.231Z,61.0
2022-08-19T06:28:17.710Z,61.0
2022-08-19T06:33:23.635Z,59.0
2022-08-19T06:38:29.848Z,57.0
2022-08-19T06:43:36.057Z,57.0
2022-08-19T06:48:45.268Z,53.0
2022-08-19T06:58:54.682Z,48.0
2022-08-19T07:04:00.887Z,49.0
2022-08-19T07:09:07.107Z,47.0
2022-08-19T07:14:19.121Z,46.0
2022-08-19T07:19:19.517Z,47.0
2022-08-19T07:24:25.726Z,45.0
2022-08-19T07:29:31.931Z,43.0
2022-08-19T07:34:38.154Z,43.0
2022-08-19T07:39:44.384Z,41.0
2022-08-19T07:44:51.093Z,39.0
2022-08-19T07:49:56.771Z,39.0
2022-08-19T07:55:02.978Z,40.0
2022-08-19T08:00:09.187Z,39.0
2022-08-19T08:05:15.399Z,40.0
2022-08-19T08:10:21.704Z,41.5
2022-08-19T08:15:27.810Z,38.0
2022-08-19T08:20:34.029Z,37.0
2022-08-19T08:25:40.238Z,39.0
2022-08-19T08:30:46.441Z,36.0
2022-08-19T08:35:52.646Z,34.0
2022-08-19T08:40:58.861Z,33.0
2022-08-19T08:46:05.068Z,30.0
2022-08-19T08:51:11.277Z,27.0
2022-08-19T08:56:18.788Z,27.0
2022-08-19T09:01:23.745Z,26.0
2022-08-19T09:06:29.906Z,25.0
2022-08-19T09:11:42.032Z,23.0
2022-08-19T09:16:42.321Z,24.0
2022-08-19T09:21:48.534Z,25.0
2022-08-19T09:26:54.745Z,23.0
2022-08-19T09:32:00.958Z,25.0
2022-08-19T09:37:07.158Z,28.0
2022-08-19T09:42:16.327Z,31.0
2022-08-19T09:47:19.976Z,32.0
2022-08-19T09:52:25.792Z,31.0
2022-08-19T09:57:32.028Z,30.5
2022-08-19T10:02:37.221Z,33.0
2022-08-19T10:07:43.431Z,31.0
2022-08-19T10:12:49.643Z,31.0
2022-08-19T10:17:55.877Z,28.0
2022-08-19T10:23:02.066Z,25.0
2022-08-19T10:28:10.630Z,25.0
2022-08-19T10:33:14.481Z,22.0
2022-08-19T10:38:20.697Z,24.0
2022-08-19T10:43:26.913Z,27.0
2022-08-19T10:48:33.123Z,25.0
2022-08-19T10:53:39.331Z,24.0
2022-08-19T10:58:45.542Z,24.0
2022-08-19T11:03:51.756Z,25.0
2022-08-19T11:08:57.957Z,22.0
2022-08-19T11:14:04.175Z,24.0
2022-08-19T11:19:10.386Z,23.0
2022-08-19T11:24:16.605Z,25.0
2022-08-19T11:29:22.811Z,26.0
2022-08-19T11:34:29.026Z,24.0
2022-08-19T11:39:35.289Z,27.0
2022-08-19T11:44:41.450Z,26.0
2022-08-19T11:49:47.661Z,27.0
2022-08-19T12:00:00.122Z,19.0
2022-08-19T12:05:09.087Z,21.0
2022-08-19T12:10:12.523Z,22.0
2022-08-19T12:15:18.782Z,22.0
2022-08-19T12:20:24.958Z,22.0
2022-08-19T12:25:31.175Z,23.0
2022-08-19T12:30:37.393Z,23.0
2022-08-19T12:35:45.660Z,22.0
2022-08-19T12:40:49.824Z,20.0
2022-08-19T12:45:56.044Z,20.0
2022-08-19T12:51:02.257Z,19.0
2022-08-19T12:56:12.252Z,22.0
2022-08-19T13:01:14.717Z,23.0
2022-08-19T13:06:20.908Z,23.0
2022-08-19T13:11:27.353Z,19.0
2022-08-19T13:16:33.801Z,20.0
2022-08-19T13:21:40.015Z,21.0
2022-08-19T13:26:46.228Z,23.0
2022-08-19T13:31:52.448Z,20.0
2022-08-19T13:36:58.672Z,18.0
2022-08-19T13:42:04.888Z,19.0
2022-08-19T13:47:11.106Z,19.0
2022-08-19T13:52:17.336Z,19.0
2022-08-19T13:57:23.559Z,20.5
2022-08-19T14:02:29.773Z,20.0
2022-08-19T14:07:35.999Z,20.0
2022-08-19T14:12:42.215Z,24.0
2022-08-19T14:17:48.470Z,24.0
2022-08-19T14:22:54.652Z,26.0
2022-08-19T14:28:00.866Z,26.0
2022-08-19T14:33:07.085Z,29.0
2022-08-19T14:38:13.296Z,25.0
2022-08-19T14:43:19.516Z,23.0
2022-08-19T14:48:28.962Z,21.0
2022-08-19T14:53:32.180Z,20.0
2022-08-19T14:58:39.202Z,18.0
2022-08-19T15:03:44.614Z,15.0
2022-08-19T15:08:50.837Z,18.0
2022-08-19T15:13:57.052Z,17.0
2022-08-19T15:19:03.270Z,15.0
2022-08-19T15:24:09.498Z,21.0
2022-08-19T15:29:15.711Z,17.0
2022-08-19T15:34:20.929Z,14.0
2022-08-19T15:39:27.150Z,15.0
2022-08-19T15:44:33.384Z,15.0
2022-08-19T15:49:39.583Z,16.0
2022-08-19T15:54:45.792Z,16.0
2022-08-19T15:59:52.008Z,19.0
2022-08-19T16:04:57.251Z,19.0
2022-08-19T16:10:18.632Z,20.0
2022-08-19T16:15:09.670Z,20.0
2022-08-19T16:20:15.869Z,17.0
2022-08-19T16:25:22.076Z,17.0
2022-08-19T16:30:28.291Z,16.0
2022-08-19T16:35:34.509Z,14.0
2022-08-19T16:40:44.957Z,13.0
2022-08-19T16:45:46.922Z,15.0
2022-08-19T16:50:53.130Z,14.0
2022-08-19T16:55:59.335Z,17.0
2022-08-19T17:01:05.562Z,18.0
2022-08-19T17:06:15.854Z,19.0
2022-08-19T17:11:18.872Z,19.5
2022-08-19T17:16:24.178Z,21.0
2022-08-19T17:21:30.382Z,20.0
2022-08-19T17:26:36.589Z,20.5
2022-08-19T17:31:42.803Z,21.0
2022-08-19T17:36:49.008Z,20.0
2022-08-19T17:41:55.220Z,20.0
2022-08-19T17:47:01.431Z,21.0
2022-08-19T17:52:10.072Z,21.0
2022-08-19T17:57:13.848Z,21.0
2022-08-19T18:02:22.041Z,22.0
2022-08-19T18:07:26.265Z,22.0
2022-08-19T18:12:32.481Z,21.0
2022-08-19T18:17:38.683Z,21.5
2022-08-19T18:22:44.895Z,20.0
2022-08-19T18:27:51.161Z,18.0
2022-08-19T18:32:57.313Z,18.0
2022-08-19T18:38:03.529Z,18.0
2022-08-19T18:43:09.727Z,18.0
2022-08-19T18:48:26.815Z,19.0
2022-08-19T18:53:22.162Z,18.0
2022-08-19T18:58:28.359Z,18.0
2022-08-19T19:03:34.564Z,19.0
2022-08-19T19:08:40.776Z,18.0
2022-08-19T19:13:46.985Z,16.5
2022-08-19T19:18:53.208Z,17.0
2022-08-19T19:23:59.413Z,16.0
2022-08-19T19:29:05.614Z,16.0
2022-08-19T19:34:29.174Z,16.0
2022-08-19T19:39:30.547Z,18.0
2022-08-19T19:44:30.246Z,20.0
2022-08-19T19:49:30.452Z,18.0
2022-08-19T19:54:36.656Z,17.0
2022-08-19T19:59:44.836Z,18.0
2022-08-19T20:04:49.080Z,18.0
2022-08-19T20:09:59.689Z,18.0
2022-08-19T20:15:01.498Z,18.0
2022-08-19T20:20:07.702Z,16.0
2022-08-19T20:25:13.937Z,16.0
2022-08-19T20:30:20.135Z,16.0
2022-08-19T20:35:26.347Z,15.0
2022-08-19T20:40:32.538Z,15.0
2022-08-19T20:45:38.755Z,15.0
2022-08-19T20:50:44.958Z,15.0
2022-08-19T20:55:51.180Z,15.0
2022-08-19T21:00:57.422Z,15.0
2022-08-19T21:06:03.597Z,15.0
2022-08-19T21:11:09.791Z,15.0
2022-08-19T21:16:16.002Z,15.0
2022-08-19T21:21:22.212Z,15.0
2022-08-19T21:26:28.421Z,15.0
2022-08-19T21:31:34.633Z,14.0
2022-08-19T21:36:39.851Z,14.0
2022-08-19T21:41:46.062Z,13.0
2022-08-19T21:46:52.268Z,14.0
2022-08-19T21:51:58.476Z,14.0
2022-08-19T21:57:04.691Z,13.0
2022-08-19T22:02:19.915Z,15.0
2022-08-19T22:07:17.106Z,14.5
2022-08-19T22:12:23.463Z,15.0
2022-08-19T22:17:29.531Z,15.0
2022-08-19T22:22:35.728Z,15.0
2022-08-19T22:27:41.940Z,15.0
2022-08-19T22:32:48.149Z,15.0
2022-08-19T22:37:54.439Z,15.0
2022-08-19T22:43:00.566Z,15.0
2022-08-19T22:48:06.778Z,15.0
2022-08-19T22:53:12.985Z,15.0
2022-08-19T22:58:28.000Z,15.0
2022-08-19T23:03:25.406Z,15.0
2022-08-19T23:08:31.619Z,15.0
2022-08-19T23:13:37.824Z,14.0
2022-08-19T23:18:44.037Z,15.0
2022-08-19T23:23:50.258Z,16.0
2022-08-19T23:28:56.463Z,14.0
2022-08-19T23:34:02.664Z,15.0
2022-08-19T23:39:08.869Z,15.0
2022-08-19T23:44:15.133Z,15.0
2022-08-19T23:49:21.281Z,15.0
2022-08-19T23:54:42.668Z,15.0
2022-08-19T23:59:33.702Z,15.0
